sensor_id;sensor_type;location;lat;lon;timestamp;temperature;humidity
29031;DHT22;16122;50.236;11.734;2023-07-29T00:02:17;19.40;70.90
29031;DHT22;16122;50.236;11.734;2023-07-29T00:04:43;19.40;71.00
29031;DHT22;16122;50.236;11.734;2023-07-29T00:07:09;19.40;71.00
29031;DHT22;16122;50.236;11.734;2023-07-29T00:09:35;19.50;71.20
29031;DHT22;16122;50.236;11.734;2023-07-29T00:12:00;19.40;70.90
29031;DHT22;16122;50.236;11.734;2023-07-29T00:14:26;19.50;71.10
29031;DHT22;16122;50.236;11.734;2023-07-29T00:16:52;19.50;70.80
29031;DHT22;16122;50.236;11.734;2023-07-29T00:19:18;19.50;71.00
29031;DHT22;16122;50.236;11.734;2023-07-29T00:21:45;19.40;71.10
29031;DHT22;16122;50.236;11.734;2023-07-29T00:24:11;19.40;70.70
29031;DHT22;16122;50.236;11.734;2023-07-29T00:26:37;19.50;71.00
29031;DHT22;16122;50.236;11.734;2023-07-29T00:29:03;19.40;70.80
29031;DHT22;16122;50.236;11.734;2023-07-29T00:31:29;19.40;70.70
29031;DHT22;16122;50.236;11.734;2023-07-29T00:33:56;19.40;70.80
29031;DHT22;16122;50.236;11.734;2023-07-29T00:36:23;19.40;70.60
29031;DHT22;16122;50.236;11.734;2023-07-29T00:38:50;19.40;70.50
29031;DHT22;16122;50.236;11.734;2023-07-29T00:41:16;19.40;70.60
29031;DHT22;16122;50.236;11.734;2023-07-29T00:43:42;19.40;70.60
29031;DHT22;16122;50.236;11.734;2023-07-29T00:46:09;19.40;70.50
29031;DHT22;16122;50.236;11.734;2023-07-29T00:48:36;19.40;71.10
29031;DHT22;16122;50.236;11.734;2023-07-29T00:51:02;19.40;70.70
29031;DHT22;16122;50.236;11.734;2023-07-29T00:53:29;19.40;70.60
29031;DHT22;16122;50.236;11.734;2023-07-29T00:55:54;19.40;70.60
29031;DHT22;16122;50.236;11.734;2023-07-29T00:58:20;19.40;70.50
29031;DHT22;16122;50.236;11.734;2023-07-29T01:00:47;19.40;70.70
29031;DHT22;16122;50.236;11.734;2023-07-29T01:03:13;19.40;71.40
29031;DHT22;16122;50.236;11.734;2023-07-29T01:06:09;19.40;70.70
29031;DHT22;16122;50.236;11.734;2023-07-29T01:08:38;19.40;70.50
29031;DHT22;16122;50.236;11.734;2023-07-29T01:11:29;19.40;70.40
29031;DHT22;16122;50.236;11.734;2023-07-29T01:14:07;19.40;70.40
29031;DHT22;16122;50.236;11.734;2023-07-29T01:16:58;19.40;70.50
29031;DHT22;16122;50.236;11.734;2023-07-29T01:22:16;19.40;70.40
29031;DHT22;16122;50.236;11.734;2023-07-29T01:24:43;19.40;70.50
29031;DHT22;16122;50.236;11.734;2023-07-29T01:27:09;19.40;70.40
29031;DHT22;16122;50.236;11.734;2023-07-29T01:29:35;19.40;70.40
29031;DHT22;16122;50.236;11.734;2023-07-29T01:32:10;19.40;70.60
29031;DHT22;16122;50.236;11.734;2023-07-29T01:34:56;19.40;70.40
29031;DHT22;16122;50.236;11.734;2023-07-29T01:37:26;19.40;70.70
29031;DHT22;16122;50.236;11.734;2023-07-29T01:39:57;19.40;70.40
29031;DHT22;16122;50.236;11.734;2023-07-29T01:42:25;19.40;70.20
29031;DHT22;16122;50.236;11.734;2023-07-29T01:44:51;19.40;70.20
29031;DHT22;16122;50.236;11.734;2023-07-29T01:47:17;19.40;70.20
29031;DHT22;16122;50.236;11.734;2023-07-29T01:49:43;19.40;70.30
29031;DHT22;16122;50.236;11.734;2023-07-29T01:52:09;19.40;70.40
29031;DHT22;16122;50.236;11.734;2023-07-29T01:54:35;19.40;70.30
29031;DHT22;16122;50.236;11.734;2023-07-29T01:57:01;19.40;70.10
29031;DHT22;16122;50.236;11.734;2023-07-29T01:59:26;19.40;70.30
29031;DHT22;16122;50.236;11.734;2023-07-29T02:01:52;19.40;70.30
29031;DHT22;16122;50.236;11.734;2023-07-29T02:04:18;19.40;70.30
29031;DHT22;16122;50.236;11.734;2023-07-29T02:06:44;19.40;70.20
29031;DHT22;16122;50.236;11.734;2023-07-29T02:09:10;19.40;70.30
29031;DHT22;16122;50.236;11.734;2023-07-29T02:11:35;19.40;70.30
29031;DHT22;16122;50.236;11.734;2023-07-29T02:14:01;19.40;70.10
29031;DHT22;16122;50.236;11.734;2023-07-29T02:16:27;19.40;70.20
29031;DHT22;16122;50.236;11.734;2023-07-29T02:18:53;19.40;70.40
29031;DHT22;16122;50.236;11.734;2023-07-29T02:21:19;19.40;70.40
29031;DHT22;16122;50.236;11.734;2023-07-29T02:23:45;19.40;70.10
29031;DHT22;16122;50.236;11.734;2023-07-29T02:26:11;19.40;70.20
29031;DHT22;16122;50.236;11.734;2023-07-29T02:28:37;19.40;70.10
29031;DHT22;16122;50.236;11.734;2023-07-29T02:31:29;19.40;70.50
29031;DHT22;16122;50.236;11.734;2023-07-29T02:33:55;19.40;70.30
29031;DHT22;16122;50.236;11.734;2023-07-29T02:36:22;19.40;70.10
29031;DHT22;16122;50.236;11.734;2023-07-29T02:38:48;19.40;70.00
29031;DHT22;16122;50.236;11.734;2023-07-29T02:41:14;19.40;70.10
29031;DHT22;16122;50.236;11.734;2023-07-29T02:43:42;19.40;71.00
29031;DHT22;16122;50.236;11.734;2023-07-29T02:46:09;19.40;70.10
29031;DHT22;16122;50.236;11.734;2023-07-29T02:48:35;19.40;70.10
29031;DHT22;16122;50.236;11.734;2023-07-29T02:51:00;19.40;70.10
29031;DHT22;16122;50.236;11.734;2023-07-29T02:53:26;19.40;70.10
29031;DHT22;16122;50.236;11.734;2023-07-29T02:55:52;19.40;70.10
29031;DHT22;16122;50.236;11.734;2023-07-29T02:58:19;19.40;70.00
29031;DHT22;16122;50.236;11.734;2023-07-29T03:00:45;19.40;70.10
29031;DHT22;16122;50.236;11.734;2023-07-29T03:03:13;19.40;70.10
29031;DHT22;16122;50.236;11.734;2023-07-29T03:05:39;19.40;70.20
29031;DHT22;16122;50.236;11.734;2023-07-29T03:08:05;19.40;70.30
29031;DHT22;16122;50.236;11.734;2023-07-29T03:10:31;19.40;70.20
29031;DHT22;16122;50.236;11.734;2023-07-29T03:12:57;19.40;70.10
29031;DHT22;16122;50.236;11.734;2023-07-29T03:15:23;19.40;69.80
29031;DHT22;16122;50.236;11.734;2023-07-29T03:17:52;19.40;70.00
29031;DHT22;16122;50.236;11.734;2023-07-29T03:20:19;19.40;69.80
29031;DHT22;16122;50.236;11.734;2023-07-29T03:22:46;19.40;70.00
29031;DHT22;16122;50.236;11.734;2023-07-29T03:25:13;19.40;69.80
29031;DHT22;16122;50.236;11.734;2023-07-29T03:27:39;19.40;70.00
29031;DHT22;16122;50.236;11.734;2023-07-29T03:30:06;19.40;70.00
29031;DHT22;16122;50.236;11.734;2023-07-29T03:32:33;19.40;69.80
29031;DHT22;16122;50.236;11.734;2023-07-29T03:34:59;19.40;70.10
29031;DHT22;16122;50.236;11.734;2023-07-29T03:37:25;19.40;69.80
29031;DHT22;16122;50.236;11.734;2023-07-29T03:39:50;19.40;70.00
29031;DHT22;16122;50.236;11.734;2023-07-29T03:42:18;19.40;69.80
29031;DHT22;16122;50.236;11.734;2023-07-29T03:44:44;19.40;69.80
29031;DHT22;16122;50.236;11.734;2023-07-29T03:47:10;19.40;70.00
29031;DHT22;16122;50.236;11.734;2023-07-29T03:49:38;19.40;69.90
29031;DHT22;16122;50.236;11.734;2023-07-29T03:52:05;19.40;69.80
29031;DHT22;16122;50.236;11.734;2023-07-29T03:54:31;19.40;70.00
29031;DHT22;16122;50.236;11.734;2023-07-29T03:56:57;19.40;69.80
29031;DHT22;16122;50.236;11.734;2023-07-29T03:59:23;19.40;69.80
29031;DHT22;16122;50.236;11.734;2023-07-29T04:01:49;19.40;69.80
29031;DHT22;16122;50.236;11.734;2023-07-29T04:04:15;19.40;69.80
29031;DHT22;16122;50.236;11.734;2023-07-29T04:06:41;19.40;69.70
29031;DHT22;16122;50.236;11.734;2023-07-29T04:09:06;19.40;70.00
29031;DHT22;16122;50.236;11.734;2023-07-29T04:11:33;19.40;69.80
29031;DHT22;16122;50.236;11.734;2023-07-29T04:13:59;19.40;69.80
29031;DHT22;16122;50.236;11.734;2023-07-29T04:16:25;19.40;69.80
29031;DHT22;16122;50.236;11.734;2023-07-29T04:18:51;19.40;70.00
29031;DHT22;16122;50.236;11.734;2023-07-29T04:21:17;19.40;69.90
29031;DHT22;16122;50.236;11.734;2023-07-29T04:23:43;19.40;69.90
29031;DHT22;16122;50.236;11.734;2023-07-29T04:26:09;19.40;70.60
29031;DHT22;16122;50.236;11.734;2023-07-29T04:28:35;19.40;69.80
29031;DHT22;16122;50.236;11.734;2023-07-29T04:31:00;19.40;69.70
29031;DHT22;16122;50.236;11.734;2023-07-29T04:33:28;19.40;69.60
29031;DHT22;16122;50.236;11.734;2023-07-29T04:35:54;19.40;69.60
29031;DHT22;16122;50.236;11.734;2023-07-29T04:38:20;19.40;69.70
29031;DHT22;16122;50.236;11.734;2023-07-29T04:40:49;19.40;69.70
29031;DHT22;16122;50.236;11.734;2023-07-29T04:43:15;19.40;69.50
29031;DHT22;16122;50.236;11.734;2023-07-29T04:45:44;19.40;69.80
29031;DHT22;16122;50.236;11.734;2023-07-29T04:48:10;19.40;70.60
29031;DHT22;16122;50.236;11.734;2023-07-29T04:50:36;19.40;71.00
29031;DHT22;16122;50.236;11.734;2023-07-29T04:53:01;19.40;71.40
29031;DHT22;16122;50.236;11.734;2023-07-29T04:55:27;19.40;71.30
29031;DHT22;16122;50.236;11.734;2023-07-29T04:57:53;19.40;71.20
29031;DHT22;16122;50.236;11.734;2023-07-29T05:00:19;19.40;71.40
29031;DHT22;16122;50.236;11.734;2023-07-29T05:02:45;19.40;71.90
29031;DHT22;16122;50.236;11.734;2023-07-29T05:05:11;19.40;71.50
29031;DHT22;16122;50.236;11.734;2023-07-29T05:07:37;19.40;71.60
29031;DHT22;16122;50.236;11.734;2023-07-29T05:10:04;19.40;71.90
29031;DHT22;16122;50.236;11.734;2023-07-29T05:12:30;19.40;72.10
29031;DHT22;16122;50.236;11.734;2023-07-29T05:14:58;19.40;71.80
29031;DHT22;16122;50.236;11.734;2023-07-29T05:17:24;19.40;72.10
29031;DHT22;16122;50.236;11.734;2023-07-29T05:19:50;19.40;72.00
29031;DHT22;16122;50.236;11.734;2023-07-29T05:22:15;19.40;72.40
29031;DHT22;16122;50.236;11.734;2023-07-29T05:24:41;19.50;72.30
29031;DHT22;16122;50.236;11.734;2023-07-29T05:27:08;19.40;72.60
29031;DHT22;16122;50.236;11.734;2023-07-29T05:29:34;19.40;72.60
29031;DHT22;16122;50.236;11.734;2023-07-29T05:32:00;19.40;72.20
29031;DHT22;16122;50.236;11.734;2023-07-29T05:34:26;19.40;72.40
29031;DHT22;16122;50.236;11.734;2023-07-29T05:36:53;19.40;72.40
29031;DHT22;16122;50.236;11.734;2023-07-29T05:39:19;19.50;73.10
29031;DHT22;16122;50.236;11.734;2023-07-29T05:41:44;19.40;73.00
29031;DHT22;16122;50.236;11.734;2023-07-29T05:44:11;19.50;72.80
29031;DHT22;16122;50.236;11.734;2023-07-29T05:46:37;19.40;72.80
29031;DHT22;16122;50.236;11.734;2023-07-29T05:49:03;19.50;72.60
29031;DHT22;16122;50.236;11.734;2023-07-29T05:51:28;19.50;73.10
29031;DHT22;16122;50.236;11.734;2023-07-29T05:53:54;19.50;73.00
29031;DHT22;16122;50.236;11.734;2023-07-29T05:56:20;19.50;73.90
29031;DHT22;16122;50.236;11.734;2023-07-29T05:58:46;19.50;73.20
29031;DHT22;16122;50.236;11.734;2023-07-29T06:01:12;19.50;72.80
29031;DHT22;16122;50.236;11.734;2023-07-29T06:03:38;19.50;73.30
29031;DHT22;16122;50.236;11.734;2023-07-29T06:06:04;19.50;73.00
29031;DHT22;16122;50.236;11.734;2023-07-29T06:08:30;19.50;73.20
29031;DHT22;16122;50.236;11.734;2023-07-29T06:10:58;19.50;74.00
29031;DHT22;16122;50.236;11.734;2023-07-29T06:13:24;19.50;73.30
29031;DHT22;16122;50.236;11.734;2023-07-29T06:15:50;19.50;73.40
29031;DHT22;16122;50.236;11.734;2023-07-29T06:18:16;19.50;73.10
29031;DHT22;16122;50.236;11.734;2023-07-29T06:20:42;19.50;73.00
29031;DHT22;16122;50.236;11.734;2023-07-29T06:23:09;19.50;74.30
29031;DHT22;16122;50.236;11.734;2023-07-29T06:25:35;19.50;73.80
29031;DHT22;16122;50.236;11.734;2023-07-29T06:28:00;19.50;73.30
29031;DHT22;16122;50.236;11.734;2023-07-29T06:30:26;19.50;73.30
29031;DHT22;16122;50.236;11.734;2023-07-29T06:32:52;19.50;73.90
29031;DHT22;16122;50.236;11.734;2023-07-29T06:35:18;19.50;74.20
29031;DHT22;16122;50.236;11.734;2023-07-29T06:37:44;19.50;73.80
29031;DHT22;16122;50.236;11.734;2023-07-29T06:40:10;19.50;73.60
29031;DHT22;16122;50.236;11.734;2023-07-29T06:42:36;19.50;73.50
29031;DHT22;16122;50.236;11.734;2023-07-29T06:45:04;19.60;74.00
29031;DHT22;16122;50.236;11.734;2023-07-29T06:50:14;19.60;74.10
29031;DHT22;16122;50.236;11.734;2023-07-29T06:52:40;19.50;73.40
29031;DHT22;16122;50.236;11.734;2023-07-29T06:55:06;19.60;73.80
29031;DHT22;16122;50.236;11.734;2023-07-29T06:57:32;19.60;74.20
29031;DHT22;16122;50.236;11.734;2023-07-29T06:59:58;19.60;73.10
29031;DHT22;16122;50.236;11.734;2023-07-29T07:02:24;19.60;73.40
29031;DHT22;16122;50.236;11.734;2023-07-29T07:04:50;19.60;73.10
29031;DHT22;16122;50.236;11.734;2023-07-29T07:07:16;19.60;72.30
29031;DHT22;16122;50.236;11.734;2023-07-29T07:09:42;19.60;72.00
29031;DHT22;16122;50.236;11.734;2023-07-29T07:12:08;19.60;72.80
29031;DHT22;16122;50.236;11.734;2023-07-29T07:14:33;19.60;72.90
29031;DHT22;16122;50.236;11.734;2023-07-29T07:17:00;19.60;73.20
29031;DHT22;16122;50.236;11.734;2023-07-29T07:19:26;19.60;72.90
29031;DHT22;16122;50.236;11.734;2023-07-29T07:21:52;19.60;72.80
29031;DHT22;16122;50.236;11.734;2023-07-29T07:24:18;19.60;72.40
29031;DHT22;16122;50.236;11.734;2023-07-29T07:26:44;19.60;72.10
29031;DHT22;16122;50.236;11.734;2023-07-29T07:29:09;19.60;72.20
29031;DHT22;16122;50.236;11.734;2023-07-29T07:31:35;19.60;72.10
29031;DHT22;16122;50.236;11.734;2023-07-29T07:34:01;19.60;72.00
29031;DHT22;16122;50.236;11.734;2023-07-29T07:36:30;19.60;72.70
29031;DHT22;16122;50.236;11.734;2023-07-29T07:38:56;19.60;72.50
29031;DHT22;16122;50.236;11.734;2023-07-29T07:41:22;19.60;73.00
29031;DHT22;16122;50.236;11.734;2023-07-29T07:43:49;19.60;72.80
29031;DHT22;16122;50.236;11.734;2023-07-29T07:46:15;19.60;72.70
29031;DHT22;16122;50.236;11.734;2023-07-29T07:48:41;19.60;72.50
29031;DHT22;16122;50.236;11.734;2023-07-29T07:51:13;19.60;72.80
29031;DHT22;16122;50.236;11.734;2023-07-29T07:53:39;19.60;71.70
29031;DHT22;16122;50.236;11.734;2023-07-29T07:56:06;19.60;72.00
29031;DHT22;16122;50.236;11.734;2023-07-29T07:58:33;19.60;72.60
29031;DHT22;16122;50.236;11.734;2023-07-29T08:01:05;19.60;72.90
29031;DHT22;16122;50.236;11.734;2023-07-29T08:03:32;19.60;72.70
29031;DHT22;16122;50.236;11.734;2023-07-29T08:05:58;19.60;73.30
29031;DHT22;16122;50.236;11.734;2023-07-29T08:08:25;19.70;75.10
29031;DHT22;16122;50.236;11.734;2023-07-29T08:10:55;19.60;74.30
29031;DHT22;16122;50.236;11.734;2023-07-29T08:13:22;19.60;74.60
29031;DHT22;16122;50.236;11.734;2023-07-29T08:15:49;19.60;74.30
29031;DHT22;16122;50.236;11.734;2023-07-29T08:18:15;19.60;74.20
29031;DHT22;16122;50.236;11.734;2023-07-29T08:20:51;19.60;74.30
29031;DHT22;16122;50.236;11.734;2023-07-29T08:23:17;19.60;74.50
29031;DHT22;16122;50.236;11.734;2023-07-29T08:25:42;19.60;74.30
29031;DHT22;16122;50.236;11.734;2023-07-29T08:28:08;19.60;74.10
29031;DHT22;16122;50.236;11.734;2023-07-29T08:30:36;19.60;74.40
29031;DHT22;16122;50.236;11.734;2023-07-29T08:33:02;19.60;75.10
29031;DHT22;16122;50.236;11.734;2023-07-29T08:35:28;19.60;75.10
29031;DHT22;16122;50.236;11.734;2023-07-29T08:37:54;19.60;75.60
29031;DHT22;16122;50.236;11.734;2023-07-29T08:40:27;19.60;75.70
29031;DHT22;16122;50.236;11.734;2023-07-29T08:42:55;19.60;75.10
29031;DHT22;16122;50.236;11.734;2023-07-29T08:45:24;19.60;75.50
29031;DHT22;16122;50.236;11.734;2023-07-29T08:47:54;19.70;76.30
29031;DHT22;16122;50.236;11.734;2023-07-29T08:50:24;19.60;77.10
29031;DHT22;16122;50.236;11.734;2023-07-29T08:52:52;19.70;77.00
29031;DHT22;16122;50.236;11.734;2023-07-29T08:55:20;19.70;75.40
29031;DHT22;16122;50.236;11.734;2023-07-29T08:57:47;19.70;75.30
29031;DHT22;16122;50.236;11.734;2023-07-29T09:00:13;19.60;75.30
29031;DHT22;16122;50.236;11.734;2023-07-29T09:02:39;19.70;75.20
29031;DHT22;16122;50.236;11.734;2023-07-29T09:05:05;19.60;74.80
29031;DHT22;16122;50.236;11.734;2023-07-29T09:07:32;19.70;75.00
29031;DHT22;16122;50.236;11.734;2023-07-29T09:09:59;19.70;74.90
29031;DHT22;16122;50.236;11.734;2023-07-29T09:12:25;19.70;74.90
29031;DHT22;16122;50.236;11.734;2023-07-29T09:14:54;19.70;75.10
29031;DHT22;16122;50.236;11.734;2023-07-29T09:17:20;19.70;75.10
29031;DHT22;16122;50.236;11.734;2023-07-29T09:19:50;19.70;75.00
29031;DHT22;16122;50.236;11.734;2023-07-29T09:22:20;19.70;76.30
29031;DHT22;16122;50.236;11.734;2023-07-29T09:24:47;19.80;76.40
29031;DHT22;16122;50.236;11.734;2023-07-29T09:27:27;19.80;76.50
29031;DHT22;16122;50.236;11.734;2023-07-29T09:29:54;19.80;75.90
29031;DHT22;16122;50.236;11.734;2023-07-29T09:32:21;19.80;76.00
29031;DHT22;16122;50.236;11.734;2023-07-29T09:34:48;19.80;75.90
29031;DHT22;16122;50.236;11.734;2023-07-29T09:37:32;19.80;75.90
29031;DHT22;16122;50.236;11.734;2023-07-29T09:39:58;19.80;76.20
29031;DHT22;16122;50.236;11.734;2023-07-29T09:42:23;19.80;76.30
29031;DHT22;16122;50.236;11.734;2023-07-29T09:44:50;19.80;77.80
29031;DHT22;16122;50.236;11.734;2023-07-29T09:47:25;19.80;77.00
29031;DHT22;16122;50.236;11.734;2023-07-29T09:49:52;19.80;77.10
29031;DHT22;16122;50.236;11.734;2023-07-29T09:52:20;19.70;76.50
29031;DHT22;16122;50.236;11.734;2023-07-29T09:54:47;19.80;76.60
29031;DHT22;16122;50.236;11.734;2023-07-29T09:57:18;19.80;76.50
29031;DHT22;16122;50.236;11.734;2023-07-29T09:59:54;19.80;76.50
29031;DHT22;16122;50.236;11.734;2023-07-29T10:02:21;19.80;77.10
29031;DHT22;16122;50.236;11.734;2023-07-29T10:04:47;19.80;76.80
29031;DHT22;16122;50.236;11.734;2023-07-29T10:07:14;19.80;77.00
29031;DHT22;16122;50.236;11.734;2023-07-29T10:09:40;19.80;76.90
29031;DHT22;16122;50.236;11.734;2023-07-29T10:12:07;19.80;77.00
29031;DHT22;16122;50.236;11.734;2023-07-29T10:14:34;19.80;76.80
29031;DHT22;16122;50.236;11.734;2023-07-29T10:17:00;19.80;77.00
29031;DHT22;16122;50.236;11.734;2023-07-29T10:19:28;19.80;77.00
29031;DHT22;16122;50.236;11.734;2023-07-29T10:21:56;19.80;77.40
29031;DHT22;16122;50.236;11.734;2023-07-29T10:24:25;19.80;77.20
29031;DHT22;16122;50.236;11.734;2023-07-29T10:26:58;19.80;77.30
29031;DHT22;16122;50.236;11.734;2023-07-29T10:29:24;19.80;77.40
29031;DHT22;16122;50.236;11.734;2023-07-29T10:31:53;19.80;77.60
29031;DHT22;16122;50.236;11.734;2023-07-29T10:34:21;19.80;77.50
29031;DHT22;16122;50.236;11.734;2023-07-29T10:36:49;19.80;77.70
29031;DHT22;16122;50.236;11.734;2023-07-29T10:39:15;19.80;77.70
29031;DHT22;16122;50.236;11.734;2023-07-29T10:42:05;19.90;78.00
29031;DHT22;16122;50.236;11.734;2023-07-29T10:47:17;19.90;78.60
29031;DHT22;16122;50.236;11.734;2023-07-29T10:49:49;19.90;79.30
29031;DHT22;16122;50.236;11.734;2023-07-29T10:52:16;19.90;79.40
29031;DHT22;16122;50.236;11.734;2023-07-29T10:54:46;19.90;80.10
29031;DHT22;16122;50.236;11.734;2023-07-29T10:57:30;19.90;80.10
29031;DHT22;16122;50.236;11.734;2023-07-29T10:59:56;19.90;80.30
29031;DHT22;16122;50.236;11.734;2023-07-29T11:02:35;19.90;80.20
29031;DHT22;16122;50.236;11.734;2023-07-29T11:08:31;20.00;83.10
29031;DHT22;16122;50.236;11.734;2023-07-29T11:11:07;19.90;80.80
29031;DHT22;16122;50.236;11.734;2023-07-29T11:13:37;19.90;81.50
29031;DHT22;16122;50.236;11.734;2023-07-29T11:16:04;19.90;80.70
29031;DHT22;16122;50.236;11.734;2023-07-29T11:18:32;20.00;80.80
29031;DHT22;16122;50.236;11.734;2023-07-29T11:20:59;19.90;81.30
29031;DHT22;16122;50.236;11.734;2023-07-29T11:23:36;19.90;80.90
29031;DHT22;16122;50.236;11.734;2023-07-29T11:26:03;19.90;81.10
29031;DHT22;16122;50.236;11.734;2023-07-29T11:28:30;20.00;80.80
29031;DHT22;16122;50.236;11.734;2023-07-29T11:30:57;20.00;80.90
29031;DHT22;16122;50.236;11.734;2023-07-29T11:33:27;20.00;80.90
29031;DHT22;16122;50.236;11.734;2023-07-29T11:35:54;20.00;81.00
29031;DHT22;16122;50.236;11.734;2023-07-29T11:38:21;20.00;80.90
29031;DHT22;16122;50.236;11.734;2023-07-29T11:41:01;20.00;81.00
29031;DHT22;16122;50.236;11.734;2023-07-29T11:43:28;20.00;81.80
29031;DHT22;16122;50.236;11.734;2023-07-29T11:45:54;20.00;82.40
29031;DHT22;16122;50.236;11.734;2023-07-29T11:48:32;20.00;81.40
29031;DHT22;16122;50.236;11.734;2023-07-29T11:50:59;20.00;81.10
29031;DHT22;16122;50.236;11.734;2023-07-29T11:53:31;20.00;81.50
29031;DHT22;16122;50.236;11.734;2023-07-29T11:55:57;20.00;81.40
29031;DHT22;16122;50.236;11.734;2023-07-29T11:58:23;20.00;81.20
29031;DHT22;16122;50.236;11.734;2023-07-29T12:00:49;20.00;81.50
29031;DHT22;16122;50.236;11.734;2023-07-29T12:03:16;20.00;81.70
29031;DHT22;16122;50.236;11.734;2023-07-29T12:05:43;20.00;81.80
29031;DHT22;16122;50.236;11.734;2023-07-29T12:08:09;20.00;81.50
29031;DHT22;16122;50.236;11.734;2023-07-29T12:10:35;20.00;81.50
29031;DHT22;16122;50.236;11.734;2023-07-29T12:13:02;20.00;81.10
29031;DHT22;16122;50.236;11.734;2023-07-29T12:15:29;20.00;81.10
29031;DHT22;16122;50.236;11.734;2023-07-29T12:18:00;20.00;81.20
29031;DHT22;16122;50.236;11.734;2023-07-29T12:20:26;20.00;81.20
29031;DHT22;16122;50.236;11.734;2023-07-29T12:22:56;20.00;81.10
29031;DHT22;16122;50.236;11.734;2023-07-29T12:25:23;20.00;81.30
29031;DHT22;16122;50.236;11.734;2023-07-29T12:27:49;20.10;81.20
29031;DHT22;16122;50.236;11.734;2023-07-29T12:30:15;20.00;81.10
29031;DHT22;16122;50.236;11.734;2023-07-29T12:32:46;20.10;81.60
29031;DHT22;16122;50.236;11.734;2023-07-29T12:35:12;20.10;81.40
29031;DHT22;16122;50.236;11.734;2023-07-29T12:37:39;20.10;81.20
29031;DHT22;16122;50.236;11.734;2023-07-29T12:40:28;20.10;81.20
29031;DHT22;16122;50.236;11.734;2023-07-29T12:42:54;20.10;81.30
29031;DHT22;16122;50.236;11.734;2023-07-29T12:45:20;20.00;81.10
29031;DHT22;16122;50.236;11.734;2023-07-29T12:47:48;20.10;81.10
29031;DHT22;16122;50.236;11.734;2023-07-29T12:50:14;20.10;81.10
29031;DHT22;16122;50.236;11.734;2023-07-29T12:52:40;20.10;80.90
29031;DHT22;16122;50.236;11.734;2023-07-29T12:55:06;20.10;81.10
29031;DHT22;16122;50.236;11.734;2023-07-29T12:57:35;20.10;80.90
29031;DHT22;16122;50.236;11.734;2023-07-29T13:00:02;20.10;81.00
29031;DHT22;16122;50.236;11.734;2023-07-29T13:02:29;20.10;80.80
29031;DHT22;16122;50.236;11.734;2023-07-29T13:04:54;20.10;80.50
29031;DHT22;16122;50.236;11.734;2023-07-29T13:07:21;20.10;80.30
29031;DHT22;16122;50.236;11.734;2023-07-29T13:09:46;20.10;80.60
29031;DHT22;16122;50.236;11.734;2023-07-29T13:12:12;20.10;80.30
29031;DHT22;16122;50.236;11.734;2023-07-29T13:14:38;20.10;80.20
29031;DHT22;16122;50.236;11.734;2023-07-29T13:17:04;20.10;80.50
29031;DHT22;16122;50.236;11.734;2023-07-29T13:19:30;20.10;80.20
29031;DHT22;16122;50.236;11.734;2023-07-29T13:21:56;20.10;80.10
29031;DHT22;16122;50.236;11.734;2023-07-29T13:24:22;20.10;80.00
29031;DHT22;16122;50.236;11.734;2023-07-29T13:26:48;20.10;80.00
29031;DHT22;16122;50.236;11.734;2023-07-29T13:29:13;20.10;79.80
29031;DHT22;16122;50.236;11.734;2023-07-29T13:31:39;20.10;80.20
29031;DHT22;16122;50.236;11.734;2023-07-29T13:34:05;20.10;79.90
29031;DHT22;16122;50.236;11.734;2023-07-29T13:36:31;20.10;80.20
29031;DHT22;16122;50.236;11.734;2023-07-29T13:38:56;20.10;80.10
29031;DHT22;16122;50.236;11.734;2023-07-29T13:41:24;20.10;80.00
29031;DHT22;16122;50.236;11.734;2023-07-29T13:43:49;20.10;79.50
29031;DHT22;16122;50.236;11.734;2023-07-29T13:46:15;20.10;79.60
29031;DHT22;16122;50.236;11.734;2023-07-29T13:48:41;20.10;79.60
29031;DHT22;16122;50.236;11.734;2023-07-29T13:51:07;20.10;79.50
29031;DHT22;16122;50.236;11.734;2023-07-29T13:53:33;20.10;79.70
29031;DHT22;16122;50.236;11.734;2023-07-29T13:55:59;20.10;79.10
29031;DHT22;16122;50.236;11.734;2023-07-29T13:58:24;20.10;79.50
29031;DHT22;16122;50.236;11.734;2023-07-29T14:00:51;20.10;79.30
29031;DHT22;16122;50.236;11.734;2023-07-29T14:03:17;20.10;79.10
29031;DHT22;16122;50.236;11.734;2023-07-29T14:05:43;20.10;79.20
29031;DHT22;16122;50.236;11.734;2023-07-29T14:08:08;20.10;79.40
29031;DHT22;16122;50.236;11.734;2023-07-29T14:10:34;20.10;79.10
29031;DHT22;16122;50.236;11.734;2023-07-29T14:13:00;20.10;79.20
29031;DHT22;16122;50.236;11.734;2023-07-29T14:15:26;20.10;79.20
29031;DHT22;16122;50.236;11.734;2023-07-29T14:17:54;20.10;79.30
29031;DHT22;16122;50.236;11.734;2023-07-29T14:20:20;20.10;78.70
29031;DHT22;16122;50.236;11.734;2023-07-29T14:22:45;20.10;78.80
29031;DHT22;16122;50.236;11.734;2023-07-29T14:25:11;20.10;78.70
29031;DHT22;16122;50.236;11.734;2023-07-29T14:27:37;20.10;78.90
29031;DHT22;16122;50.236;11.734;2023-07-29T14:30:04;20.10;78.80
29031;DHT22;16122;50.236;11.734;2023-07-29T14:32:30;20.10;78.90
29031;DHT22;16122;50.236;11.734;2023-07-29T14:34:56;20.10;78.60
29031;DHT22;16122;50.236;11.734;2023-07-29T14:37:22;20.10;78.50
29031;DHT22;16122;50.236;11.734;2023-07-29T14:39:47;20.10;78.60
29031;DHT22;16122;50.236;11.734;2023-07-29T14:42:13;20.10;79.00
29031;DHT22;16122;50.236;11.734;2023-07-29T14:44:40;20.10;78.50
29031;DHT22;16122;50.236;11.734;2023-07-29T14:47:08;20.10;78.50
29031;DHT22;16122;50.236;11.734;2023-07-29T14:49:35;20.10;78.60
29031;DHT22;16122;50.236;11.734;2023-07-29T14:52:01;20.10;78.70
29031;DHT22;16122;50.236;11.734;2023-07-29T14:54:26;20.10;78.40
29031;DHT22;16122;50.236;11.734;2023-07-29T14:56:52;20.10;78.10
29031;DHT22;16122;50.236;11.734;2023-07-29T14:59:18;20.10;78.40
29031;DHT22;16122;50.236;11.734;2023-07-29T15:01:44;20.10;78.20
29031;DHT22;16122;50.236;11.734;2023-07-29T15:04:10;20.10;78.00
29031;DHT22;16122;50.236;11.734;2023-07-29T15:06:36;20.10;78.40
29031;DHT22;16122;50.236;11.734;2023-07-29T15:09:01;20.10;78.10
29031;DHT22;16122;50.236;11.734;2023-07-29T15:11:28;20.10;78.30
29031;DHT22;16122;50.236;11.734;2023-07-29T15:13:54;20.10;78.30
29031;DHT22;16122;50.236;11.734;2023-07-29T15:16:23;20.10;78.00
29031;DHT22;16122;50.236;11.734;2023-07-29T15:18:49;20.10;77.90
29031;DHT22;16122;50.236;11.734;2023-07-29T15:21:15;20.10;78.00
29031;DHT22;16122;50.236;11.734;2023-07-29T15:23:41;20.10;77.90
29031;DHT22;16122;50.236;11.734;2023-07-29T15:26:07;20.10;77.70
29031;DHT22;16122;50.236;11.734;2023-07-29T15:28:33;20.10;77.90